sensor_id;sensor_type;location;lat;lon;timestamp;pressure;altitude;pressure_sealevel;temperature;humidity
28428;BME280;15662;49.128;8.520;2023-05-20T00:01:32;100600.81;;;20.62;41.14
28428;BME280;15662;49.128;8.520;2023-05-20T00:04:00;100603.81;;;20.57;41.08
28428;BME280;15662;49.128;8.520;2023-05-20T00:06:28;100603.81;;;20.57;41.19
28428;BME280;15662;49.128;8.520;2023-05-20T00:08:56;100610.44;;;20.52;41.28
28428;BME280;15662;49.128;8.520;2023-05-20T00:11:26;100607.88;;;20.50;41.64
28428;BME280;15662;49.128;8.520;2023-05-20T00:13:54;100611.78;;;20.45;41.38
28428;BME280;15662;49.128;8.520;2023-05-20T00:16:22;100601.00;;;20.45;41.53
28428;BME280;15662;49.128;8.520;2023-05-20T00:18:49;100597.34;;;20.46;41.49
28428;BME280;15662;49.128;8.520;2023-05-20T00:21:17;100606.41;;;20.45;41.45
28428;BME280;15662;49.128;8.520;2023-05-20T00:23:45;100605.72;;;20.41;41.26
28428;BME280;15662;49.128;8.520;2023-05-20T00:26:13;100605.13;;;20.36;41.32
28428;BME280;15662;49.128;8.520;2023-05-20T00:28:41;100610.69;;;20.33;41.44
28428;BME280;15662;49.128;8.520;2023-05-20T00:31:09;100601.94;;;20.29;41.61
28428;BME280;15662;49.128;8.520;2023-05-20T00:33:37;100593.22;;;20.26;41.43
28428;BME280;15662;49.128;8.520;2023-05-20T00:36:05;100596.38;;;20.18;41.52
28428;BME280;15662;49.128;8.520;2023-05-20T00:38:33;100599.16;;;20.17;41.69
28428;BME280;15662;49.128;8.520;2023-05-20T00:41:01;100596.00;;;20.10;41.66
28428;BME280;15662;49.128;8.520;2023-05-20T00:43:29;100589.84;;;20.08;41.79
28428;BME280;15662;49.128;8.520;2023-05-20T00:45:57;100581.19;;;20.03;41.68
28428;BME280;15662;49.128;8.520;2023-05-20T00:48:25;100585.88;;;19.99;41.90
28428;BME280;15662;49.128;8.520;2023-05-20T00:50:55;100582.59;;;19.94;41.91
28428;BME280;15662;49.128;8.520;2023-05-20T00:53:23;100582.88;;;19.90;41.97
28428;BME280;15662;49.128;8.520;2023-05-20T00:55:52;100573.47;;;19.82;42.18
28428;BME280;15662;49.128;8.520;2023-05-20T00:58:19;100579.03;;;19.79;42.27
28428;BME280;15662;49.128;8.520;2023-05-20T01:00:48;100575.75;;;19.74;41.91
28428;BME280;15662;49.128;8.520;2023-05-20T01:03:17;100586.72;;;19.71;42.27
28428;BME280;15662;49.128;8.520;2023-05-20T01:05:45;100577.09;;;19.67;42.37
28428;BME280;15662;49.128;8.520;2023-05-20T01:08:13;100572.75;;;19.65;42.46
28428;BME280;15662;49.128;8.520;2023-05-20T01:10:43;100579.09;;;19.64;42.36
28428;BME280;15662;49.128;8.520;2023-05-20T01:13:19;100575.53;;;19.63;42.44
28428;BME280;15662;49.128;8.520;2023-05-20T01:15:49;100577.47;;;19.61;42.49
28428;BME280;15662;49.128;8.520;2023-05-20T01:18:19;100573.94;;;19.59;42.55
28428;BME280;15662;49.128;8.520;2023-05-20T01:20:53;100580.22;;;19.59;42.57
28428;BME280;15662;49.128;8.520;2023-05-20T01:23:22;100571.47;;;19.56;42.78
28428;BME280;15662;49.128;8.520;2023-05-20T01:25:50;100571.25;;;19.59;42.62
28428;BME280;15662;49.128;8.520;2023-05-20T01:28:18;100574.69;;;19.63;42.57
28428;BME280;15662;49.128;8.520;2023-05-20T01:30:52;100582.47;;;19.67;42.59
28428;BME280;15662;49.128;8.520;2023-05-20T01:33:24;100568.44;;;19.62;42.58
28428;BME280;15662;49.128;8.520;2023-05-20T01:35:54;100572.84;;;19.63;42.55
28428;BME280;15662;49.128;8.520;2023-05-20T01:38:23;100565.47;;;19.67;42.65
28428;BME280;15662;49.128;8.520;2023-05-20T01:40:53;100562.69;;;19.68;42.59
28428;BME280;15662;49.128;8.520;2023-05-20T01:43:21;100563.66;;;19.67;42.63
28428;BME280;15662;49.128;8.520;2023-05-20T01:45:50;100565.38;;;19.68;42.71
28428;BME280;15662;49.128;8.520;2023-05-20T01:48:18;100559.03;;;19.69;42.99
28428;BME280;15662;49.128;8.520;2023-05-20T01:50:46;100567.09;;;19.69;42.90
28428;BME280;15662;49.128;8.520;2023-05-20T01:53:13;100561.72;;;19.69;43.12
28428;BME280;15662;49.128;8.520;2023-05-20T01:55:41;100564.41;;;19.69;43.00
28428;BME280;15662;49.128;8.520;2023-05-20T01:58:09;100568.66;;;19.73;42.99
28428;BME280;15662;49.128;8.520;2023-05-20T02:00:37;100563.16;;;19.75;42.91
28428;BME280;15662;49.128;8.520;2023-05-20T02:03:05;100563.84;;;19.78;43.02
28428;BME280;15662;49.128;8.520;2023-05-20T02:05:35;100567.13;;;19.83;42.85
28428;BME280;15662;49.128;8.520;2023-05-20T02:08:05;100574.16;;;19.86;43.18
28428;BME280;15662;49.128;8.520;2023-05-20T02:10:32;100565.22;;;19.86;43.19
28428;BME280;15662;49.128;8.520;2023-05-20T02:13:00;100567.72;;;19.89;42.98
28428;BME280;15662;49.128;8.520;2023-05-20T02:15:28;100549.84;;;19.88;43.15
28428;BME280;15662;49.128;8.520;2023-05-20T02:17:56;100556.88;;;19.90;43.16
28428;BME280;15662;49.128;8.520;2023-05-20T02:20:25;100559.47;;;19.92;43.15
28428;BME280;15662;49.128;8.520;2023-05-20T02:22:53;100547.03;;;19.89;43.08
28428;BME280;15662;49.128;8.520;2023-05-20T02:25:21;100551.56;;;19.89;43.06
28428;BME280;15662;49.128;8.520;2023-05-20T02:27:49;100555.22;;;19.88;42.91
28428;BME280;15662;49.128;8.520;2023-05-20T02:30:17;100542.81;;;19.85;42.88
28428;BME280;15662;49.128;8.520;2023-05-20T02:32:45;100542.91;;;19.83;42.87
28428;BME280;15662;49.128;8.520;2023-05-20T02:35:13;100539.38;;;19.83;42.93
28428;BME280;15662;49.128;8.520;2023-05-20T02:37:41;100546.56;;;19.82;42.85
28428;BME280;15662;49.128;8.520;2023-05-20T02:40:11;100538.69;;;19.79;42.89
28428;BME280;15662;49.128;8.520;2023-05-20T02:42:40;100535.06;;;19.80;42.88
28428;BME280;15662;49.128;8.520;2023-05-20T02:45:08;100529.75;;;19.79;43.05
28428;BME280;15662;49.128;8.520;2023-05-20T02:47:36;100536.97;;;19.78;42.81
28428;BME280;15662;49.128;8.520;2023-05-20T02:50:05;100531.69;;;19.77;42.97
28428;BME280;15662;49.128;8.520;2023-05-20T02:52:33;100529.97;;;19.76;42.88
28428;BME280;15662;49.128;8.520;2023-05-20T02:55:02;100516.50;;;19.76;42.89
28428;BME280;15662;49.128;8.520;2023-05-20T02:57:31;100529.97;;;19.76;43.02
28428;BME280;15662;49.128;8.520;2023-05-20T02:59:59;100525.63;;;19.73;42.86
28428;BME280;15662;49.128;8.520;2023-05-20T03:02:27;100533.78;;;19.72;42.90
28428;BME280;15662;49.128;8.520;2023-05-20T03:04:55;100527.72;;;19.68;43.16
28428;BME280;15662;49.128;8.520;2023-05-20T03:07:23;100530.00;;;19.60;42.90
28428;BME280;15662;49.128;8.520;2023-05-20T03:09:51;100535.38;;;19.60;43.18
28428;BME280;15662;49.128;8.520;2023-05-20T03:12:19;100542.66;;;19.58;43.08
28428;BME280;15662;49.128;8.520;2023-05-20T03:14:47;100540.25;;;19.53;43.20
28428;BME280;15662;49.128;8.520;2023-05-20T03:17:15;100545.88;;;19.49;43.07
28428;BME280;15662;49.128;8.520;2023-05-20T03:19:43;100541.00;;;19.41;43.08
28428;BME280;15662;49.128;8.520;2023-05-20T03:22:10;100539.34;;;19.39;42.92
28428;BME280;15662;49.128;8.520;2023-05-20T03:24:38;100543.09;;;19.36;43.01
28428;BME280;15662;49.128;8.520;2023-05-20T03:27:07;100536.22;;;19.30;42.93
28428;BME280;15662;49.128;8.520;2023-05-20T03:29:35;100549.88;;;19.27;43.00
28428;BME280;15662;49.128;8.520;2023-05-20T03:32:03;100551.84;;;19.24;43.05
28428;BME280;15662;49.128;8.520;2023-05-20T03:34:31;100555.78;;;19.18;43.13
28428;BME280;15662;49.128;8.520;2023-05-20T03:37:00;100549.63;;;19.16;42.92
28428;BME280;15662;49.128;8.520;2023-05-20T03:39:29;100543.56;;;19.13;42.88
28428;BME280;15662;49.128;8.520;2023-05-20T03:41:56;100542.00;;;19.08;42.95
28428;BME280;15662;49.128;8.520;2023-05-20T03:44:24;100550.25;;;19.05;43.16
28428;BME280;15662;49.128;8.520;2023-05-20T03:46:52;100545.91;;;19.03;43.10
28428;BME280;15662;49.128;8.520;2023-05-20T03:49:20;100551.47;;;19.00;43.08
28428;BME280;15662;49.128;8.520;2023-05-20T03:51:48;100561.34;;;18.99;43.28
28428;BME280;15662;49.128;8.520;2023-05-20T03:54:16;100554.34;;;18.97;43.28
28428;BME280;15662;49.128;8.520;2023-05-20T03:56:48;100549.03;;;18.95;43.35
28428;BME280;15662;49.128;8.520;2023-05-20T03:59:16;100546.63;;;18.91;43.46
28428;BME280;15662;49.128;8.520;2023-05-20T04:01:44;100551.31;;;18.87;43.64
28428;BME280;15662;49.128;8.520;2023-05-20T04:04:12;100544.13;;;18.88;43.54
28428;BME280;15662;49.128;8.520;2023-05-20T04:06:41;100559.28;;;18.89;43.74
28428;BME280;15662;49.128;8.520;2023-05-20T04:09:10;100561.19;;;18.87;43.63
28428;BME280;15662;49.128;8.520;2023-05-20T04:11:39;100566.56;;;18.87;43.60
28428;BME280;15662;49.128;8.520;2023-05-20T04:14:08;100563.78;;;18.88;43.68
28428;BME280;15662;49.128;8.520;2023-05-20T04:16:37;100566.47;;;18.88;43.81
28428;BME280;15662;49.128;8.520;2023-05-20T04:19:05;100559.44;;;18.86;43.75
28428;BME280;15662;49.128;8.520;2023-05-20T04:21:33;100556.75;;;18.86;43.86
28428;BME280;15662;49.128;8.520;2023-05-20T04:24:01;100558.53;;;18.87;43.96
28428;BME280;15662;49.128;8.520;2023-05-20T04:26:29;100556.59;;;18.89;43.84
28428;BME280;15662;49.128;8.520;2023-05-20T04:28:57;100560.84;;;18.93;43.72
28428;BME280;15662;49.128;8.520;2023-05-20T04:31:26;100558.16;;;18.93;43.87
28428;BME280;15662;49.128;8.520;2023-05-20T04:33:55;100567.06;;;18.93;43.78
28428;BME280;15662;49.128;8.520;2023-05-20T04:36:23;100560.75;;;18.94;43.72
28428;BME280;15662;49.128;8.520;2023-05-20T04:38:58;100569.50;;;18.98;43.85
28428;BME280;15662;49.128;8.520;2023-05-20T04:41:25;100564.13;;;18.98;43.88
28428;BME280;15662;49.128;8.520;2023-05-20T04:43:53;100566.63;;;19.01;43.88
28428;BME280;15662;49.128;8.520;2023-05-20T04:46:26;100570.09;;;19.03;43.89
28428;BME280;15662;49.128;8.520;2023-05-20T04:48:54;100563.88;;;19.02;43.85
28428;BME280;15662;49.128;8.520;2023-05-20T04:51:22;100562.81;;;19.05;43.88
28428;BME280;15662;49.128;8.520;2023-05-20T04:53:51;100557.53;;;19.03;43.88
28428;BME280;15662;49.128;8.520;2023-05-20T04:56:19;100552.84;;;19.07;43.83
28428;BME280;15662;49.128;8.520;2023-05-20T04:58:47;100558.03;;;19.10;43.92
28428;BME280;15662;49.128;8.520;2023-05-20T05:01:15;100552.75;;;19.08;43.85
28428;BME280;15662;49.128;8.520;2023-05-20T05:03:44;100553.63;;;19.09;44.02
28428;BME280;15662;49.128;8.520;2023-05-20T05:06:12;100545.47;;;19.11;44.07
28428;BME280;15662;49.128;8.520;2023-05-20T05:08:41;100532.72;;;19.14;43.91
28428;BME280;15662;49.128;8.520;2023-05-20T05:11:09;100531.69;;;19.17;44.06
28428;BME280;15662;49.128;8.520;2023-05-20T05:13:37;100540.34;;;19.22;44.26
28428;BME280;15662;49.128;8.520;2023-05-20T05:16:05;100537.47;;;19.25;44.15
28428;BME280;15662;49.128;8.520;2023-05-20T05:18:33;100535.19;;;19.33;44.11
28428;BME280;15662;49.128;8.520;2023-05-20T05:21:03;100535.69;;;19.40;44.21
28428;BME280;15662;49.128;8.520;2023-05-20T05:23:32;100541.84;;;19.42;44.08
28428;BME280;15662;49.128;8.520;2023-05-20T05:26:00;100519.28;;;19.44;44.32
28428;BME280;15662;49.128;8.520;2023-05-20T05:28:28;100518.31;;;19.45;44.29
28428;BME280;15662;49.128;8.520;2023-05-20T05:30:57;100518.84;;;19.52;44.19
28428;BME280;15662;49.128;8.520;2023-05-20T05:33:26;100517.59;;;19.57;44.24
28428;BME280;15662;49.128;8.520;2023-05-20T05:35:55;100517.44;;;19.61;44.30
28428;BME280;15662;49.128;8.520;2023-05-20T05:38:26;100507.28;;;19.66;44.32
28428;BME280;15662;49.128;8.520;2023-05-20T05:40:53;100511.47;;;19.70;44.48
28428;BME280;15662;49.128;8.520;2023-05-20T05:43:22;100509.38;;;19.75;44.39
28428;BME280;15662;49.128;8.520;2023-05-20T05:45:51;100507.38;;;19.78;44.30
28428;BME280;15662;49.128;8.520;2023-05-20T05:48:20;100509.78;;;19.83;44.52
28428;BME280;15662;49.128;8.520;2023-05-20T05:50:49;100509.59;;;19.86;44.42
28428;BME280;15662;49.128;8.520;2023-05-20T05:53:18;100508.34;;;19.92;44.51
28428;BME280;15662;49.128;8.520;2023-05-20T05:55:48;100505.44;;;19.95;44.50
28428;BME280;15662;49.128;8.520;2023-05-20T05:58:16;100502.56;;;19.98;44.23
28428;BME280;15662;49.128;8.520;2023-05-20T06:00:45;100510.06;;;20.07;44.47
28428;BME280;15662;49.128;8.520;2023-05-20T06:03:13;100514.88;;;20.16;44.44
28428;BME280;15662;49.128;8.520;2023-05-20T06:05:44;100512.38;;;20.27;44.23
28428;BME280;15662;49.128;8.520;2023-05-20T06:08:13;100518.13;;;20.35;44.76
28428;BME280;15662;49.128;8.520;2023-05-20T06:10:49;100509.28;;;20.48;44.34
28428;BME280;15662;49.128;8.520;2023-05-20T06:13:17;100511.19;;;20.60;44.46
28428;BME280;15662;49.128;8.520;2023-05-20T06:15:48;100507.56;;;20.74;44.39
28428;BME280;15662;49.128;8.520;2023-05-20T06:18:17;100509.78;;;20.81;44.72
28428;BME280;15662;49.128;8.520;2023-05-20T06:20:56;100512.63;;;20.93;44.24
28428;BME280;15662;49.128;8.520;2023-05-20T06:23:25;100507.69;;;20.99;44.53
28428;BME280;15662;49.128;8.520;2023-05-20T06:26:00;100510.84;;;21.06;44.31
28428;BME280;15662;49.128;8.520;2023-05-20T06:28:29;100513.91;;;21.14;44.21
28428;BME280;15662;49.128;8.520;2023-05-20T06:30:57;100508.19;;;21.19;43.94
28428;BME280;15662;49.128;8.520;2023-05-20T06:33:27;100508.63;;;21.25;43.92
28428;BME280;15662;49.128;8.520;2023-05-20T06:36:00;100510.16;;;21.29;43.70
28428;BME280;15662;49.128;8.520;2023-05-20T06:38:30;100503.41;;;21.36;43.72
28428;BME280;15662;49.128;8.520;2023-05-20T06:40:58;100497.56;;;21.43;43.66
28428;BME280;15662;49.128;8.520;2023-05-20T06:43:26;100495.44;;;21.48;43.91
28428;BME280;15662;49.128;8.520;2023-05-20T06:46:04;100494.91;;;21.55;43.67
28428;BME280;15662;49.128;8.520;2023-05-20T06:48:37;100497.09;;;21.63;43.83
28428;BME280;15662;49.128;8.520;2023-05-20T06:51:07;100495.66;;;21.70;43.74
28428;BME280;15662;49.128;8.520;2023-05-20T06:53:39;100487.13;;;21.76;43.79
28428;BME280;15662;49.128;8.520;2023-05-20T06:56:07;100481.41;;;21.81;43.85
28428;BME280;15662;49.128;8.520;2023-05-20T06:58:35;100479.50;;;21.83;43.65
28428;BME280;15662;49.128;8.520;2023-05-20T07:01:02;100487.16;;;21.89;43.71
28428;BME280;15662;49.128;8.520;2023-05-20T07:03:30;100501.19;;;21.94;43.67
28428;BME280;15662;49.128;8.520;2023-05-20T07:05:58;100495.44;;;21.99;43.59
28428;BME280;15662;49.128;8.520;2023-05-20T07:08:26;100489.59;;;22.05;43.55
28428;BME280;15662;49.128;8.520;2023-05-20T07:10:55;100486.28;;;22.14;43.34
28428;BME280;15662;49.128;8.520;2023-05-20T07:13:24;100484.00;;;22.21;43.44
28428;BME280;15662;49.128;8.520;2023-05-20T07:15:52;100480.63;;;22.30;43.55
28428;BME280;15662;49.128;8.520;2023-05-20T07:18:21;100484.16;;;22.43;43.52
28428;BME280;15662;49.128;8.520;2023-05-20T07:20:54;100480.16;;;22.49;43.56
28428;BME280;15662;49.128;8.520;2023-05-20T07:23:40;100469.13;;;22.52;43.41
28428;BME280;15662;49.128;8.520;2023-05-20T07:26:09;100467.91;;;22.56;43.40
28428;BME280;15662;49.128;8.520;2023-05-20T07:28:37;100454.06;;;22.60;43.33
28428;BME280;15662;49.128;8.520;2023-05-20T07:31:05;100447.78;;;22.60;43.21
28428;BME280;15662;49.128;8.520;2023-05-20T07:33:39;100453.50;;;22.68;43.16
28428;BME280;15662;49.128;8.520;2023-05-20T07:36:08;100442.84;;;22.78;43.32
28428;BME280;15662;49.128;8.520;2023-05-20T07:38:39;100447.66;;;22.85;43.54
28428;BME280;15662;49.128;8.520;2023-05-20T07:41:17;100437.56;;;23.00;43.57
28428;BME280;15662;49.128;8.520;2023-05-20T07:43:45;100439.00;;;23.17;43.40
28428;BME280;15662;49.128;8.520;2023-05-20T07:46:13;100442.56;;;23.29;43.44
28428;BME280;15662;49.128;8.520;2023-05-20T07:48:46;100440.88;;;23.39;42.87
28428;BME280;15662;49.128;8.520;2023-05-20T07:51:15;100441.00;;;23.49;42.60
28428;BME280;15662;49.128;8.520;2023-05-20T07:53:43;100427.88;;;23.55;42.19
28428;BME280;15662;49.128;8.520;2023-05-20T07:56:11;100437.34;;;23.61;42.06
28428;BME280;15662;49.128;8.520;2023-05-20T07:58:51;100440.22;;;23.71;42.04
28428;BME280;15662;49.128;8.520;2023-05-20T08:01:19;100436.53;;;23.72;41.92
28428;BME280;15662;49.128;8.520;2023-05-20T08:03:47;100437.53;;;23.71;41.44
28428;BME280;15662;49.128;8.520;2023-05-20T08:06:21;100429.41;;;23.71;41.44
28428;BME280;15662;49.128;8.520;2023-05-20T08:08:56;100424.97;;;23.70;41.46
28428;BME280;15662;49.128;8.520;2023-05-20T08:11:29;100430.75;;;23.76;41.47
28428;BME280;15662;49.128;8.520;2023-05-20T08:13:58;100429.03;;;23.75;41.15
28428;BME280;15662;49.128;8.520;2023-05-20T08:16:28;100439.59;;;23.78;40.89
28428;BME280;15662;49.128;8.520;2023-05-20T08:18:56;100434.19;;;23.78;41.03
28428;BME280;15662;49.128;8.520;2023-05-20T08:21:24;100427.69;;;23.81;41.15
28428;BME280;15662;49.128;8.520;2023-05-20T08:23:52;100431.88;;;23.85;40.91
28428;BME280;15662;49.128;8.520;2023-05-20T08:26:20;100431.25;;;23.92;41.13
28428;BME280;15662;49.128;8.520;2023-05-20T08:28:50;100422.25;;;24.03;40.76
28428;BME280;15662;49.128;8.520;2023-05-20T08:31:18;100418.31;;;24.07;40.57
28428;BME280;15662;49.128;8.520;2023-05-20T08:33:46;100423.22;;;24.13;40.54
28428;BME280;15662;49.128;8.520;2023-05-20T08:36:14;100417.31;;;24.19;40.59
28428;BME280;15662;49.128;8.520;2023-05-20T08:38:43;100403.78;;;24.19;40.55
28428;BME280;15662;49.128;8.520;2023-05-20T08:41:12;100406.22;;;24.23;40.54
28428;BME280;15662;49.128;8.520;2023-05-20T08:43:43;100402.66;;;24.22;40.53
28428;BME280;15662;49.128;8.520;2023-05-20T08:46:12;100410.06;;;24.20;40.38
28428;BME280;15662;49.128;8.520;2023-05-20T08:48:41;100396.75;;;24.17;40.15
28428;BME280;15662;49.128;8.520;2023-05-20T08:51:09;100412.50;;;24.23;40.29
28428;BME280;15662;49.128;8.520;2023-05-20T08:53:39;100396.00;;;24.26;40.21
28428;BME280;15662;49.128;8.520;2023-05-20T08:56:07;100396.47;;;24.31;40.38
28428;BME280;15662;49.128;8.520;2023-05-20T08:58:36;100396.75;;;24.39;40.00
28428;BME280;15662;49.128;8.520;2023-05-20T09:01:05;100388.72;;;24.49;40.23
28428;BME280;15662;49.128;8.520;2023-05-20T09:03:35;100380.94;;;24.56;39.85
28428;BME280;15662;49.128;8.520;2023-05-20T09:06:07;100381.41;;;24.61;39.80
28428;BME280;15662;49.128;8.520;2023-05-20T09:08:36;100384.25;;;24.59;39.58
28428;BME280;15662;49.128;8.520;2023-05-20T09:11:04;100373.25;;;24.61;39.87
28428;BME280;15662;49.128;8.520;2023-05-20T09:13:31;100382.13;;;24.63;39.44
28428;BME280;15662;49.128;8.520;2023-05-20T09:16:00;100389.28;;;24.64;39.54
28428;BME280;15662;49.128;8.520;2023-05-20T09:18:31;100395.88;;;24.71;39.42
28428;BME280;15662;49.128;8.520;2023-05-20T09:21:04;100393.13;;;24.82;39.23
28428;BME280;15662;49.128;8.520;2023-05-20T09:23:36;100387.19;;;24.88;39.20
28428;BME280;15662;49.128;8.520;2023-05-20T09:26:05;100378.78;;;24.91;39.43
28428;BME280;15662;49.128;8.520;2023-05-20T09:28:33;100383.22;;;24.92;38.82
28428;BME280;15662;49.128;8.520;2023-05-20T09:31:04;100381.00;;;24.98;38.78
28428;BME280;15662;49.128;8.520;2023-05-20T09:33:33;100388.72;;;25.02;38.79
28428;BME280;15662;49.128;8.520;2023-05-20T09:36:07;100386.75;;;25.04;38.92
28428;BME280;15662;49.128;8.520;2023-05-20T09:38:39;100374.53;;;25.10;38.98
28428;BME280;15662;49.128;8.520;2023-05-20T09:41:12;100393.72;;;25.18;38.65
28428;BME280;15662;49.128;8.520;2023-05-20T09:43:41;100383.06;;;25.26;38.93
28428;BME280;15662;49.128;8.520;2023-05-20T09:46:10;100378.69;;;25.35;38.95
28428;BME280;15662;49.128;8.520;2023-05-20T09:48:38;100385.31;;;25.42;38.66
28428;BME280;15662;49.128;8.520;2023-05-20T09:51:07;100380.44;;;25.45;38.42
28428;BME280;15662;49.128;8.520;2023-05-20T09:53:35;100389.78;;;25.53;38.57
28428;BME280;15662;49.128;8.520;2023-05-20T09:56:04;100377.66;;;25.57;38.15
28428;BME280;15662;49.128;8.520;2023-05-20T09:58:34;100372.81;;;25.60;37.99
28428;BME280;15662;49.128;8.520;2023-05-20T10:01:02;100385.38;;;25.61;37.93
28428;BME280;15662;49.128;8.520;2023-05-20T10:03:31;100369.53;;;25.66;37.77
28428;BME280;15662;49.128;8.520;2023-05-20T10:12:38;100362.22;;;25.78;37.87
28428;BME280;15662;49.128;8.520;2023-05-20T10:18:35;100366.38;;;25.82;37.41
28428;BME280;15662;49.128;8.520;2023-05-20T10:21:15;100351.06;;;25.81;37.55
28428;BME280;15662;49.128;8.520;2023-05-20T10:23:43;100359.53;;;25.88;37.39
28428;BME280;15662;49.128;8.520;2023-05-20T10:26:12;100350.97;;;25.92;37.52
28428;BME280;15662;49.128;8.520;2023-05-20T10:28:43;100352.97;;;26.00;37.38
28428;BME280;15662;49.128;8.520;2023-05-20T10:31:21;100339.84;;;26.05;37.03
28428;BME280;15662;49.128;8.520;2023-05-20T10:33:52;100345.59;;;26.12;37.29
28428;BME280;15662;49.128;8.520;2023-05-20T10:36:28;100344.31;;;26.26;37.00
28428;BME280;15662;49.128;8.520;2023-05-20T10:38:59;100342.75;;;26.33;36.92
28428;BME280;15662;49.128;8.520;2023-05-20T10:41:29;100344.03;;;26.38;36.63
28428;BME280;15662;49.128;8.520;2023-05-20T10:44:05;100335.19;;;26.36;36.41
28428;BME280;15662;49.128;8.520;2023-05-20T10:46:34;100316.69;;;26.30;36.52
28428;BME280;15662;49.128;8.520;2023-05-20T10:49:22;100314.28;;;26.37;36.82
28428;BME280;15662;49.128;8.520;2023-05-20T10:51:54;100324.34;;;26.46;36.40
28428;BME280;15662;49.128;8.520;2023-05-20T10:54:22;100320.78;;;26.55;36.24
28428;BME280;15662;49.128;8.520;2023-05-20T10:56:54;100322.34;;;26.67;35.97
28428;BME280;15662;49.128;8.520;2023-05-20T10:59:22;100322.91;;;26.71;36.01
28428;BME280;15662;49.128;8.520;2023-05-20T11:01:50;100313.75;;;26.72;35.93
28428;BME280;15662;49.128;8.520;2023-05-20T11:04:18;100326.59;;;26.80;35.65
28428;BME280;15662;49.128;8.520;2023-05-20T11:06:50;100324.59;;;26.82;35.60
28428;BME280;15662;49.128;8.520;2023-05-20T11:09:21;100323.88;;;26.89;35.88
28428;BME280;15662;49.128;8.520;2023-05-20T11:11:52;100301.66;;;26.94;35.53
28428;BME280;15662;49.128;8.520;2023-05-20T11:14:21;100309.97;;;27.02;35.54
28428;BME280;15662;49.128;8.520;2023-05-20T11:16:55;100310.66;;;27.14;35.49
28428;BME280;15662;49.128;8.520;2023-05-20T11:19:27;100303.94;;;27.18;35.30
28428;BME280;15662;49.128;8.520;2023-05-20T11:21:56;100304.94;;;27.17;35.11
28428;BME280;15662;49.128;8.520;2023-05-20T11:24:26;100295.25;;;27.14;35.00
28428;BME280;15662;49.128;8.520;2023-05-20T11:26:55;100306.13;;;27.14;34.98
28428;BME280;15662;49.128;8.520;2023-05-20T11:29:25;100288.78;;;27.15;35.11
28428;BME280;15662;49.128;8.520;2023-05-20T11:31:54;100278.16;;;27.22;34.99
28428;BME280;15662;49.128;8.520;2023-05-20T11:34:22;100285.00;;;27.26;34.90
28428;BME280;15662;49.128;8.520;2023-05-20T11:36:57;100279.13;;;27.31;34.90
28428;BME280;15662;49.128;8.520;2023-05-20T11:39:28;100276.09;;;27.34;34.79
28428;BME280;15662;49.128;8.520;2023-05-20T11:41:57;100289.63;;;27.16;35.11
28428;BME280;15662;49.128;8.520;2023-05-20T11:44:25;100273.88;;;27.19;34.77
28428;BME280;15662;49.128;8.520;2023-05-20T11:47:02;100265.25;;;27.24;34.38
28428;BME280;15662;49.128;8.520;2023-05-20T11:49:48;100278.00;;;27.23;34.74
28428;BME280;15662;49.128;8.520;2023-05-20T11:52:16;100273.13;;;27.27;34.49
28428;BME280;15662;49.128;8.520;2023-05-20T11:54:44;100269.38;;;27.28;34.60
28428;BME280;15662;49.128;8.520;2023-05-20T11:57:12;100262.22;;;27.27;34.54
28428;BME280;15662;49.128;8.520;2023-05-20T11:59:39;100267.22;;;27.32;34.69
28428;BME280;15662;49.128;8.520;2023-05-20T12:02:07;100263.22;;;27.36;34.65
28428;BME280;15662;49.128;8.520;2023-05-20T12:04:35;100263.78;;;27.39;34.50
28428;BME280;15662;49.128;8.520;2023-05-20T12:07:03;100269.06;;;27.41;34.61
28428;BME280;15662;49.128;8.520;2023-05-20T12:09:35;100268.59;;;27.45;34.44
28428;BME280;15662;49.128;8.520;2023-05-20T12:12:03;100267.88;;;27.43;34.23
28428;BME280;15662;49.128;8.520;2023-05-20T12:14:31;100272.63;;;27.41;34.37
28428;BME280;15662;49.128;8.520;2023-05-20T12:16:59;100264.31;;;27.43;34.19
28428;BME280;15662;49.128;8.520;2023-05-20T12:19:27;100265.16;;;27.43;34.24
28428;BME280;15662;49.128;8.520;2023-05-20T12:21:55;100267.59;;;27.46;34.32
28428;BME280;15662;49.128;8.520;2023-05-20T12:24:23;100252.22;;;27.55;34.14
28428;BME280;15662;49.128;8.520;2023-05-20T12:26:50;100262.22;;;27.64;34.03
28428;BME280;15662;49.128;8.520;2023-05-20T12:29:18;100250.88;;;27.69;34.12
28428;BME280;15662;49.128;8.520;2023-05-20T12:31:47;100255.72;;;27.75;33.86
28428;BME280;15662;49.128;8.520;2023-05-20T12:34:15;100243.81;;;27.76;33.81
28428;BME280;15662;49.128;8.520;2023-05-20T12:36:43;100250.22;;;27.85;33.98
28428;BME280;15662;49.128;8.520;2023-05-20T12:39:11;100252.59;;;27.88;33.62
28428;BME280;15662;49.128;8.520;2023-05-20T12:41:38;100248.34;;;27.85;33.92
28428;BME280;15662;49.128;8.520;2023-05-20T12:44:06;100243.75;;;27.86;33.67
28428;BME280;15662;49.128;8.520;2023-05-20T12:46:35;100239.78;;;27.80;33.46
28428;BME280;15662;49.128;8.520;2023-05-20T12:49:04;100249.94;;;27.78;33.40
28428;BME280;15662;49.128;8.520;2023-05-20T12:51:32;100246.63;;;27.84;33.49
28428;BME280;15662;49.128;8.520;2023-05-20T12:54:00;100233.06;;;27.92;33.67
28428;BME280;15662;49.128;8.520;2023-05-20T12:56:28;100243.06;;;28.01;33.61
28428;BME280;15662;49.128;8.520;2023-05-20T12:58:57;100240.41;;;28.10;33.48
28428;BME280;15662;49.128;8.520;2023-05-20T13:01:25;100248.44;;;28.11;33.20
28428;BME280;15662;49.128;8.520;2023-05-20T13:03:53;100224.38;;;28.07;33.13
28428;BME280;15662;49.128;8.520;2023-05-20T13:06:21;100235.81;;;28.10;33.27
28428;BME280;15662;49.128;8.520;2023-05-20T13:08:50;100231.41;;;28.09;33.19
28428;BME280;15662;49.128;8.520;2023-05-20T13:11:20;100213.16;;;28.10;33.14